Time;durP1;ratioP1;P1;durP2;ratioP2;P2;SDS_P1;SDS_P2;PMS_P1;PMS_P2;Temp;Humidity;BMP_temperature;BMP_pressure;BME280_temperature;BME280_humidity;BME280_pressure;Samples;Min_cycle;Max_cycle;Signal;HPM_P1;HPM_P2
2021/10/10 00:00:08;;;;;;;32.40;17.30;;;;;;;2.07;74.58;98504.48;116447;1181;68373;-69
2021/10/10 00:02:59;;;;;;;33.40;18.50;;;;;;;1.99;74.57;98498.46;116197;1181;59627;-67
2021/10/10 00:05:29;;;;;;;28.90;15.90;;;;;;;1.94;74.70;98497.73;116232;1181;59510;-70
2021/10/10 00:07:59;;;;;;;31.10;16.30;;;;;;;1.91;74.21;98495.63;116547;1182;71389;-71
2021/10/10 00:10:31;;;;;;;27.60;15.80;;;;;;;1.87;73.50;98494.29;116451;1182;67441;-74
2021/10/10 00:13:01;;;;;;;30.00;16.20;;;;;;;1.84;72.86;98488.63;116414;1182;68890;-72
2021/10/10 00:15:31;;;;;;;;;;;;;;;1.84;73.90;98485.55;116315;1182;59558;-70
2021/10/10 00:18:00;;;;;;;29.60;14.20;;;;;;;1.83;72.66;98485.63;116533;1182;59555;-71
2021/10/10 00:20:30;;;;;;;31.00;15.20;;;;;;;1.83;74.18;98490.69;116347;1182;71456;-74
2021/10/10 00:23:00;;;;;;;30.30;17.40;;;;;;;1.77;72.85;98495.71;116447;1182;68316;-71
2021/10/10 00:25:30;;;;;;;31.70;17.00;;;;;;;1.72;73.28;98494.58;116328;1182;68443;-69
2021/10/10 00:28:00;;;;;;;24.80;13.10;;;;;;;1.67;74.17;98495.71;116139;1182;59726;-67
2021/10/10 00:30:30;;;;;;;23.50;14.00;;;;;;;1.59;76.35;98495.45;116167;1182;59561;-69
2021/10/10 00:33:00;;;;;;;28.00;14.50;;;;;;;1.49;76.26;98495.86;116257;1181;71362;-67
2021/10/10 00:35:30;;;;;;;27.10;15.40;;;;;;;1.43;75.15;98493.52;116266;1182;68177;-71
2021/10/10 00:38:01;;;;;;;32.40;15.90;;;;;;;1.36;74.25;98492.97;116077;1182;68339;-67
2021/10/10 00:40:31;;;;;;;27.40;15.20;;;;;;;1.31;73.76;98493.64;116548;1181;59551;-70
2021/10/10 00:43:00;;;;;;;30.50;15.80;;;;;;;1.32;74.32;98489.22;116525;1182;59460;-68
2021/10/10 00:45:30;;;;;;;27.70;15.20;;;;;;;1.33;73.92;98482.44;116450;1182;70628;-73
2021/10/10 00:48:01;;;;;;;27.80;15.00;;;;;;;1.32;74.80;98478.84;116526;1182;67764;-74
2021/10/10 00:50:32;;;;;;;35.80;15.90;;;;;;;1.29;75.37;98480.73;116391;1182;68429;-71
2021/10/10 00:53:02;;;;;;;30.30;16.40;;;;;;;1.26;75.60;98481.11;116563;1182;59548;-71
2021/10/10 00:55:35;;;;;;;30.00;16.30;;;;;;;1.23;74.58;98484.30;116547;1181;59555;-65
2021/10/10 00:58:06;;;;;;;36.20;16.90;;;;;;;1.20;74.15;98481.73;116469;1182;71483;-67
2021/10/10 01:00:39;;;;;;;23.50;12.40;;;;;;;1.18;74.75;98485.13;116505;1182;67424;-74
2021/10/10 01:03:09;;;;;;;27.40;14.80;;;;;;;1.14;77.25;98484.66;116305;1182;69246;-65
2021/10/10 01:05:38;;;;;;;32.40;15.90;;;;;;;1.11;76.38;98483.26;116378;1181;59622;-65
2021/10/10 01:08:08;;;;;;;;;;;;;;;1.07;77.03;98483.07;116423;1181;59532;-68
2021/10/10 01:10:38;;;;;;;30.10;15.40;;;;;;;1.02;77.03;98485.13;116536;1181;70713;-65
2021/10/10 01:13:08;;;;;;;27.10;15.90;;;;;;;0.98;76.52;98483.93;116437;1182;68170;-68
2021/10/10 01:15:38;;;;;;;31.80;17.40;;;;;;;0.95;75.80;98483.52;116398;1174;69307;-68
2021/10/10 01:18:08;;;;;;;31.00;17.00;;;;;;;0.93;75.27;98480.15;116475;1182;59537;-65
2021/10/10 01:20:44;;;;;;;33.20;16.20;;;;;;;0.94;75.93;98483.92;116503;1182;59511;-70
2021/10/10 01:23:14;;;;;;;34.00;15.50;;;;;;;0.95;76.06;98483.46;116391;1182;71359;-65
2021/10/10 01:25:45;;;;;;;30.50;15.40;;;;;;;0.91;76.73;98486.81;116408;1182;68312;-70
2021/10/10 01:28:14;;;;;;;27.10;14.60;;;;;;;0.88;76.17;98482.98;116669;1182;69239;-68
2021/10/10 01:30:45;;;;;;;30.00;15.00;;;;;;;0.85;77.52;98485.86;116475;1182;59497;-69
2021/10/10 01:33:16;;;;;;;29.10;15.40;;;;;;;0.82;75.94;98488.75;116416;1181;59573;-76
2021/10/10 01:35:46;;;;;;;29.50;14.60;;;;;;;0.78;76.11;98488.80;116504;1181;71290;-69
2021/10/10 01:38:17;;;;;;;;;;;;;;;0.76;76.30;98493.51;116447;1182;67633;-67
2021/10/10 01:40:48;;;;;;;30.10;13.50;;;;;;;0.73;76.17;98491.54;116510;1178;68246;-67
2021/10/10 01:43:18;;;;;;;22.80;12.20;;;;;;;0.67;75.65;98492.40;116578;1182;59549;-75
2021/10/10 01:45:48;;;;;;;24.00;13.10;;;;;;;0.64;78.19;98493.02;116124;1180;59494;-66
2021/10/10 01:48:17;;;;;;;25.60;13.20;;;;;;;0.64;78.00;98486.86;116502;1182;71355;-66
2021/10/10 01:50:47;;;;;;;22.80;11.90;;;;;;;0.66;78.07;98483.17;116298;1182;67829;-70
2021/10/10 01:53:17;;;;;;;25.10;14.10;;;;;;;0.68;78.84;98484.40;116477;1182;68630;-66
2021/10/10 01:55:48;;;;;;;32.40;16.00;;;;;;;0.71;77.68;98479.98;116553;1182;59552;-67
2021/10/10 01:58:18;;;;;;;28.10;14.40;;;;;;;0.76;77.23;98475.73;116495;1181;59628;-70
2021/10/10 02:00:48;;;;;;;30.40;16.60;;;;;;;0.79;77.16;98476.14;116458;1182;70692;-70
2021/10/10 02:03:18;;;;;;;31.70;17.20;;;;;;;0.83;77.10;98479.50;116537;1181;68209;-69
2021/10/10 02:05:48;;;;;;;29.20;16.50;;;;;;;0.79;77.02;98477.70;116436;1182;69099;-75
2021/10/10 02:08:18;;;;;;;28.40;16.30;;;;;;;0.76;77.18;98472.31;116499;1181;59612;-69
2021/10/10 02:10:47;;;;;;;34.10;18.30;;;;;;;0.72;76.87;98476.80;116197;1182;59542;-74
2021/10/10 02:13:17;;;;;;;26.00;16.30;;;;;;;0.71;76.90;98482.61;116304;1180;71370;-72
2021/10/10 02:15:48;;;;;;;27.00;13.20;;;;;;;0.71;77.26;98475.91;116126;1180;69041;-72
2021/10/10 02:18:18;;;;;;;24.70;16.00;;;;;;;0.73;78.65;98471.46;116024;1182;68320;-67
2021/10/10 02:20:47;;;;;;;22.70;13.00;;;;;;;0.78;78.27;98470.02;116123;1182;59634;-68
2021/10/10 02:23:19;;;;;;;23.30;12.60;;;;;;;0.83;78.81;98473.02;116258;1182;59630;-67
2021/10/10 02:25:49;;;;;;;26.40;14.00;;;;;;;0.86;78.73;98461.41;116613;1180;70589;-71
2021/10/10 02:28:20;;;;;;;23.30;11.60;;;;;;;0.91;78.59;98457.19;116387;1182;67524;-65
2021/10/10 02:30:50;;;;;;;24.80;13.10;;;;;;;0.96;79.42;98449.42;116483;1181;67780;-68
2021/10/10 02:33:20;;;;;;;25.10;15.00;;;;;;;1.01;79.80;98453.38;116525;1180;59599;-76
2021/10/10 02:35:49;;;;;;;26.60;15.20;;;;;;;1.07;78.46;98447.77;116504;1180;59546;-73
2021/10/10 02:38:20;;;;;;;30.90;16.00;;;;;;;1.15;77.57;98442.41;116554;1182;71286;-69
2021/10/10 02:40:50;;;;;;;28.90;14.70;;;;;;;1.23;78.35;98443.45;116614;1180;67514;-71
2021/10/10 02:43:20;;;;;;;29.70;14.90;;;;;;;1.30;77.89;98450.56;116537;1180;68427;-71
2021/10/10 02:45:51;;;;;;;27.10;15.20;;;;;;;1.34;77.15;98444.52;116482;1181;59542;-74
2021/10/10 02:48:20;;;;;;;27.30;14.30;;;;;;;1.39;77.51;98443.58;116425;1181;59534;-68
2021/10/10 02:50:50;;;;;;;21.70;13.00;;;;;;;1.44;78.96;98444.73;116515;1181;71366;-67
2021/10/10 02:53:19;;;;;;;25.60;12.50;;;;;;;1.47;78.06;98442.16;116527;1182;67550;-72
2021/10/10 02:55:49;;;;;;;30.30;12.90;;;;;;;1.47;77.48;98443.48;116502;1182;68292;-70
2021/10/10 02:58:18;;;;;;;26.50;14.30;;;;;;;1.49;77.19;98443.67;116509;1183;59558;-69
2021/10/10 03:00:48;;;;;;;27.00;14.10;;;;;;;1.52;76.68;98448.98;116538;1180;59525;-67
2021/10/10 03:03:18;;;;;;;26.10;14.30;;;;;;;1.53;76.55;98447.27;116505;1181;71360;-68
2021/10/10 03:05:47;;;;;;;32.10;14.50;;;;;;;1.53;76.02;98442.03;116545;1180;68437;-72
2021/10/10 03:08:18;;;;;;;28.00;13.40;;;;;;;1.53;76.58;98437.82;116563;1180;69225;-71
2021/10/10 03:10:48;;;;;;;26.10;13.10;;;;;;;1.55;76.86;98436.55;116523;1182;59558;-67
2021/10/10 03:13:18;;;;;;;27.50;13.70;;;;;;;1.58;78.74;98432.08;116528;1182;59559;-68
2021/10/10 03:15:47;;;;;;;20.90;12.40;;;;;;;1.60;77.94;98434.63;116473;1182;70473;-74
2021/10/10 03:18:17;;;;;;;20.70;12.20;;;;;;;1.55;77.56;98439.27;116370;1182;68724;-68
2021/10/10 03:20:47;;;;;;;27.10;13.80;;;;;;;1.55;78.17;98435.13;116564;1181;69218;-72
2021/10/10 03:23:16;;;;;;;29.10;14.30;;;;;;;1.56;78.37;98431.02;116515;1182;59535;-67
2021/10/10 03:25:46;;;;;;;21.20;12.90;;;;;;;1.58;76.90;98431.77;116497;1181;59567;-66
2021/10/10 03:28:17;;;;;;;26.20;12.70;;;;;;;1.61;77.05;98432.23;116578;1180;70700;-66
2021/10/10 03:30:46;;;;;;;21.00;12.20;;;;;;;1.64;77.35;98424.50;116449;1182;68404;-71
2021/10/10 03:33:16;;;;;;;22.40;12.10;;;;;;;1.68;78.46;98425.54;116524;1180;67501;-73
2021/10/10 03:35:46;;;;;;;25.60;12.80;;;;;;;1.73;78.88;98429.05;116500;1181;59574;-69
2021/10/10 03:38:15;;;;;;;23.50;13.00;;;;;;;1.77;77.85;98425.78;116533;1181;59577;-67
2021/10/10 03:40:45;;;;;;;27.30;13.10;;;;;;;1.79;77.33;98422.80;116515;1181;70433;-66
2021/10/10 03:43:14;;;;;;;25.40;13.70;;;;;;;1.82;78.00;98421.62;116299;1182;67456;-66
2021/10/10 03:45:43;;;;;;;20.80;12.40;;;;;;;1.85;78.45;98414.50;116497;1182;69259;-66
2021/10/10 03:48:13;;;;;;;20.50;13.30;;;;;;;1.90;78.36;98416.63;116328;1183;59473;-70
2021/10/10 03:50:43;;;;;;;21.90;12.10;;;;;;;1.94;78.31;98414.36;116544;1180;59567;-71
2021/10/10 03:53:12;;;;;;;30.10;15.50;;;;;;;1.97;78.28;98414.66;116430;1181;70844;-67
2021/10/10 03:55:41;;;;;;;28.70;15.10;;;;;;;1.98;77.31;98410.94;116488;1181;67707;-73
2021/10/10 03:58:14;;;;;;;24.00;14.60;;;;;;;1.97;77.64;98407.38;116489;1181;69091;-67
2021/10/10 04:00:44;;;;;;;26.10;14.00;;;;;;;2.03;79.99;98413.21;116517;1182;59649;-69
2021/10/10 04:03:16;;;;;;;26.30;14.80;;;;;;;2.07;78.57;98413.77;116574;1181;59490;-66
2021/10/10 04:05:47;;;;;;;31.10;15.90;;;;;;;2.08;77.72;98416.20;116217;1182;70583;-74
2021/10/10 04:08:16;;;;;;;29.50;16.00;;;;;;;2.06;77.55;98414.31;116759;1180;68387;-67
2021/10/10 04:10:45;;;;;;;28.40;14.90;;;;;;;2.04;77.92;98411.36;116464;1182;69220;-69
2021/10/10 04:13:15;;;;;;;31.10;16.60;;;;;;;2.03;78.20;98415.25;116515;1182;59472;-72
2021/10/10 04:15:44;;;;;;;27.50;16.00;;;;;;;2.04;77.38;98416.83;116414;1181;59588;-68
2021/10/10 04:18:14;;;;;;;26.80;15.50;;;;;;;1.99;77.24;98422.83;116531;1181;71232;-68
2021/10/10 04:20:43;;;;;;;25.50;13.60;;;;;;;1.93;77.45;98419.17;116566;1180;68661;-71
2021/10/10 04:23:12;;;;;;;32.20;17.00;;;;;;;1.87;78.50;98417.43;116522;1182;68187;-71
2021/10/10 04:25:41;;;;;;;26.60;14.90;;;;;;;1.86;78.38;98416.22;116526;1182;59481;-72
2021/10/10 04:28:11;;;;;;;30.20;16.50;;;;;;;1.84;77.82;98418.68;116519;1182;59566;-67
2021/10/10 04:30:40;;;;;;;31.50;16.70;;;;;;;1.81;77.96;98417.79;116122;1181;71203;-72
2021/10/10 04:33:10;;;;;;;26.90;15.70;;;;;;;1.77;77.90;98416.12;116340;1180;68235;-72
2021/10/10 04:35:39;;;;;;;26.90;15.30;;;;;;;1.73;77.08;98414.39;116164;1181;69408;-72
2021/10/10 04:38:09;;;;;;;28.40;14.40;;;;;;;1.70;77.43;98405.67;116117;1182;59511;-70
2021/10/10 04:40:38;;;;;;;25.70;15.20;;;;;;;1.77;80.98;98410.02;116603;1180;59551;-69
2021/10/10 04:43:08;;;;;;;25.70;14.40;;;;;;;1.80;79.53;98406.34;116561;1180;71146;-67
2021/10/10 04:45:37;;;;;;;28.30;14.90;;;;;;;1.82;79.48;98399.30;116517;1182;68492;-69
2021/10/10 04:48:07;;;;;;;26.10;15.60;;;;;;;1.84;79.78;98398.17;116416;1182;69562;-71
2021/10/10 04:50:36;;;;;;;23.80;14.20;;;;;;;1.88;79.47;98399.19;116419;1182;59518;-73
2021/10/10 04:53:05;;;;;;;30.70;17.40;;;;;;;1.93;79.70;98399.67;116403;1176;59558;-69
2021/10/10 04:55:35;;;;;;;23.00;13.20;;;;;;;2.00;78.52;98402.71;116396;1182;71198;-73
2021/10/10 04:58:04;;;;;;;32.50;17.80;;;;;;;2.07;78.59;98407.21;116467;1182;67735;-70
2021/10/10 05:00:33;;;;;;;27.90;17.00;;;;;;;2.12;78.03;98410.11;116372;1182;68270;-67
2021/10/10 05:03:04;;;;;;;28.60;17.30;;;;;;;2.12;77.73;98409.10;116434;1182;59612;-74
2021/10/10 05:05:34;;;;;;;29.20;16.20;;;;;;;2.17;77.68;98406.39;116422;1182;59522;-66
2021/10/10 05:08:03;;;;;;;33.10;19.90;;;;;;;2.21;77.81;98407.48;116401;1182;71455;-69
2021/10/10 05:10:33;;;;;;;33.40;18.10;;;;;;;2.25;77.30;98407.39;116304;1182;68314;-72
2021/10/10 05:13:03;;;;;;;31.10;16.50;;;;;;;2.26;77.45;98407.17;116322;1182;69517;-73
2021/10/10 05:15:33;;;;;;;28.30;15.10;;;;;;;2.31;77.35;98397.59;116475;1182;59539;-71
2021/10/10 05:18:02;;;;;;;31.30;17.60;;;;;;;2.39;77.74;98398.68;116197;1184;59587;-70
2021/10/10 05:20:32;;;;;;;34.20;17.80;;;;;;;2.47;77.35;98397.96;116438;1182;69435;-70
2021/10/10 05:23:01;;;;;;;32.00;17.50;;;;;;;2.55;76.80;98406.80;116161;1182;68515;-72
2021/10/10 05:25:31;;;;;;;31.10;17.80;;;;;;;2.61;76.64;98411.19;116345;1182;69432;-67
2021/10/10 05:28:00;;;;;;;34.90;17.70;;;;;;;2.64;76.85;98413.89;116344;1182;59539;-68
2021/10/10 05:30:30;;;;;;;28.20;16.10;;;;;;;2.70;76.36;98410.56;116302;1182;59529;-72
2021/10/10 05:33:00;;;;;;;31.10;15.50;;;;;;;2.74;76.88;98417.12;116295;1182;71520;-75
2021/10/10 05:35:34;;;;;;;31.00;14.90;;;;;;;2.77;76.71;98419.51;116272;1182;68437;-66
2021/10/10 05:38:03;;;;;;;27.70;15.80;;;;;;;2.80;77.29;98420.18;116474;1182;69265;-70
2021/10/10 05:40:33;;;;;;;33.00;16.60;;;;;;;2.89;77.55;98421.44;116283;1182;59559;-70
2021/10/10 05:43:02;;;;;;;27.70;16.40;;;;;;;2.98;77.93;98422.28;116312;1182;59545;-75
2021/10/10 05:45:31;;;;;;;30.00;16.90;;;;;;;3.12;77.34;98419.78;116350;1182;71495;-70
2021/10/10 05:48:01;;;;;;;26.80;15.40;;;;;;;3.26;76.97;98416.48;116284;1182;67647;-75
2021/10/10 05:50:30;;;;;;;27.90;15.90;;;;;;;3.41;76.62;98416.61;116363;1182;69967;-75
2021/10/10 05:53:06;;;;;;;28.10;15.90;;;;;;;3.55;76.15;98421.11;116288;1182;59536;-68
2021/10/10 05:55:40;;;;;;;40.00;19.80;;;;;;;3.67;75.98;98423.80;116310;1182;59567;-69
2021/10/10 05:58:17;;;;;;;31.80;17.90;;;;;;;3.78;75.15;98416.59;116254;1182;71769;-69
2021/10/10 06:00:47;;;;;;;44.00;23.60;;;;;;;3.86;74.31;98419.27;116277;1182;67482;-67
2021/10/10 06:03:16;;;;;;;50.40;29.70;;;;;;;4.00;73.86;98422.66;116325;1182;69844;-68
2021/10/10 06:05:45;;;;;;;44.70;25.10;;;;;;;4.11;73.08;98415.27;116328;1182;59540;-74
2021/10/10 06:08:14;;;;;;;44.80;22.40;;;;;;;4.32;73.27;98416.70;116311;1182;59544;-72
2021/10/10 06:10:44;;;;;;;47.30;25.60;;;;;;;4.67;71.25;98419.73;116461;1177;70396;-67
2021/10/10 06:13:13;;;;;;;39.00;21.30;;;;;;;5.00;68.42;98418.77;116512;1182;68573;-70
2021/10/10 06:15:42;;;;;;;49.70;26.20;;;;;;;5.22;68.17;98419.89;116453;1182;69247;-72
2021/10/10 06:18:11;;;;;;;42.00;23.70;;;;;;;5.65;68.42;98411.39;116448;1181;59549;-72
2021/10/10 06:20:40;;;;;;;39.80;23.70;;;;;;;6.00;67.71;98411.05;116443;1182;59541;-72
2021/10/10 06:23:09;;;;;;;35.70;20.30;;;;;;;6.20;66.66;98414.98;116431;1182;70626;-68
2021/10/10 06:25:39;;;;;;;37.80;21.70;;;;;;;6.33;66.04;98411.26;116495;1182;68101;-70
2021/10/10 06:28:08;;;;;;;34.10;20.50;;;;;;;6.40;64.70;98411.82;116408;1182;69304;-71
2021/10/10 06:30:38;;;;;;;35.50;19.20;;;;;;;6.53;65.19;98413.59;116447;1182;60105;-80
2021/10/10 06:33:07;;;;;;;34.20;18.70;;;;;;;6.62;63.88;98414.30;116524;1177;59567;-71
2021/10/10 06:35:36;;;;;;;36.20;18.50;;;;;;;6.66;62.93;98418.73;116444;1181;71277;-73
2021/10/10 06:38:05;;;;;;;32.90;16.80;;;;;;;6.71;63.24;98417.40;116446;1182;69587;-71
2021/10/10 06:40:35;;;;;;;28.80;15.40;;;;;;;6.74;61.72;98420.70;116398;1182;69236;-76
2021/10/10 06:43:05;;;;;;;26.50;13.50;;;;;;;6.64;59.14;98424.85;116384;1181;59508;-76
2021/10/10 06:45:33;;;;;;;28.30;14.60;;;;;;;6.48;58.92;98421.27;116474;1182;59561;-66
2021/10/10 06:48:02;;;;;;;25.20;13.00;;;;;;;6.32;60.69;98416.67;116446;1182;71476;-72
2021/10/10 06:50:32;;;;;;;24.20;12.40;;;;;;;6.38;60.30;98414.25;116465;1182;67409;-73
2021/10/10 06:53:01;;;;;;;23.50;11.90;;;;;;;6.50;57.42;98416.26;116370;1182;69317;-75
2021/10/10 06:55:30;;;;;;;19.50;10.50;;;;;;;6.71;57.19;98416.45;116222;1182;59565;-78
2021/10/10 06:57:59;;;;;;;17.10;11.00;;;;;;;6.71;55.01;98411.97;116432;1182;59554;-68
2021/10/10 07:00:28;;;;;;;26.10;12.10;;;;;;;6.96;56.94;98409.16;116421;1182;71507;-68
2021/10/10 07:02:58;;;;;;;24.90;12.60;;;;;;;7.04;56.36;98409.48;116231;1182;67613;-69
2021/10/10 07:05:28;;;;;;;24.80;12.90;;;;;;;7.13;56.93;98404.60;116372;1182;68202;-73
2021/10/10 07:07:57;;;;;;;24.40;12.20;;;;;;;7.26;57.17;98402.71;116213;1182;59548;-65
2021/10/10 07:10:26;;;;;;;26.30;12.50;;;;;;;7.42;55.30;98399.63;116336;1180;59557;-73
2021/10/10 07:12:56;;;;;;;27.10;12.50;;;;;;;7.94;55.21;98400.36;116283;1182;71509;-73
2021/10/10 07:15:26;;;;;;;22.10;12.70;;;;;;;8.58;52.05;98399.77;116319;1182;68608;-69
2021/10/10 07:18:00;;;;;;;21.30;12.30;;;;;;;9.24;50.23;98401.67;116241;1182;69300;-75
2021/10/10 07:20:51;;;;;;;29.60;13.40;;;;;;;9.90;48.30;98399.70;116432;1182;59608;-68
2021/10/10 07:26:08;;;;;;;21.90;12.90;;;;;;;11.31;43.93;98402.95;116320;1182;71582;-77
2021/10/10 07:28:39;;;;;;;25.60;12.40;;;;;;;12.30;42.31;98399.79;116280;1182;68263;-71
2021/10/10 07:31:08;;;;;;;;;;;;;;;12.47;40.91;98390.13;116382;1182;68452;-66
2021/10/10 07:33:38;;;;;;;24.70;12.70;;;;;;;13.16;41.57;98386.17;116494;1182;59545;-71
2021/10/10 07:36:07;;;;;;;23.10;12.20;;;;;;;14.02;39.62;98386.84;116373;1182;59558;-76
2021/10/10 07:38:36;;;;;;;24.20;12.60;;;;;;;14.59;38.31;98381.67;116302;1182;70634;-71
2021/10/10 07:41:06;;;;;;;17.90;11.80;;;;;;;15.07;36.54;98385.69;116438;1182;68148;-70
2021/10/10 07:43:35;;;;;;;23.80;13.40;;;;;;;15.40;36.07;98382.21;116455;1183;70088;-76
2021/10/10 07:46:09;;;;;;;23.90;12.00;;;;;;;16.20;35.80;98379.13;116453;1182;59532;-70
2021/10/10 07:48:38;;;;;;;24.70;14.30;;;;;;;15.95;34.51;98376.75;116486;1182;59539;-75
2021/10/10 07:51:07;;;;;;;27.40;11.80;;;;;;;16.44;33.91;98376.02;116425;1182;71208;-71
2021/10/10 07:53:37;;;;;;;20.00;9.70;;;;;;;16.48;32.58;98374.15;116461;1182;68995;-77
2021/10/10 07:56:06;;;;;;;18.00;9.50;;;;;;;16.71;30.83;98371.80;116406;1182;69605;-67
2021/10/10 07:58:35;;;;;;;19.20;10.00;;;;;;;17.29;31.11;98367.15;116368;1182;59557;-75
2021/10/10 08:01:04;;;;;;;18.50;9.60;;;;;;;17.22;29.10;98365.65;116516;1182;59550;-69
2021/10/10 08:03:32;;;;;;;15.60;8.70;;;;;;;17.17;28.87;98362.73;116442;1183;70805;-70
2021/10/10 08:06:01;;;;;;;21.80;10.10;;;;;;;17.68;28.22;98359.92;116409;1182;68347;-67
2021/10/10 08:08:30;;;;;;;18.50;8.60;;;;;;;17.88;27.85;98357.06;116259;1181;68414;-71
2021/10/10 08:10:59;;;;;;;16.30;9.30;;;;;;;17.62;27.00;98354.87;116418;1181;59543;-73
2021/10/10 08:13:28;;;;;;;16.10;8.70;;;;;;;18.12;26.65;98355.42;116401;1182;59593;-78
2021/10/10 08:15:57;;;;;;;19.50;9.50;;;;;;;18.19;27.00;98358.30;116427;1182;70932;-69
2021/10/10 08:18:27;;;;;;;18.50;9.50;;;;;;;18.63;27.30;98357.11;116440;1182;68326;-74
2021/10/10 08:20:55;;;;;;;17.80;8.80;;;;;;;19.02;26.01;98354.66;116490;1174;69281;-73
2021/10/10 08:23:24;;;;;;;19.50;8.70;;;;;;;19.06;25.46;98355.27;116397;1182;59549;-70
2021/10/10 08:25:53;;;;;;;15.80;8.30;;;;;;;19.15;25.18;98346.92;116375;1182;59555;-75
2021/10/10 08:28:24;;;;;;;18.50;8.50;;;;;;;19.15;25.09;98347.39;116433;1182;71511;-72
2021/10/10 08:30:54;;;;;;;18.90;8.60;;;;;;;18.81;24.80;98340.67;116435;1181;67737;-77
2021/10/10 08:33:23;;;;;;;17.20;8.00;;;;;;;18.37;25.36;98337.85;116411;1182;69716;-74
2021/10/10 08:35:51;;;;;;;13.80;8.40;;;;;;;18.43;25.49;98337.69;116464;1181;59555;-69
2021/10/10 08:38:20;;;;;;;13.90;7.80;;;;;;;18.85;25.69;98334.19;116418;1182;59542;-74
2021/10/10 08:40:53;;;;;;;15.60;7.20;;;;;;;18.74;25.44;98332.45;116440;1182;72021;-71
2021/10/10 08:43:23;;;;;;;20.20;7.80;;;;;;;18.85;25.69;98328.63;116309;1182;67470;-68
2021/10/10 08:45:52;;;;;;;13.30;7.50;;;;;;;19.86;23.76;98325.64;116463;1180;68684;-71
2021/10/10 08:48:21;;;;;;;15.90;7.30;;;;;;;18.15;25.20;98321.70;116420;1182;59554;-74
2021/10/10 08:50:54;;;;;;;17.10;8.10;;;;;;;18.64;25.21;98316.17;116422;1182;59541;-72
2021/10/10 08:53:24;;;;;;;16.60;7.20;;;;;;;19.46;24.63;98316.01;116372;1183;71418;-72
2021/10/10 08:55:53;;;;;;;;;;;;;;;20.64;23.49;98310.73;116482;1183;68601;-69
2021/10/10 08:58:25;;;;;;;17.20;8.40;;;;;;;21.33;22.68;98301.41;116468;1183;69236;-73
2021/10/10 09:01:11;;;;;;;13.50;7.40;;;;;;;21.45;21.74;98293.42;116489;1182;59555;-72
2021/10/10 09:03:46;;;;;;;16.00;7.50;;;;;;;19.96;23.68;98292.43;116391;1182;59580;-76
2021/10/10 09:06:15;;;;;;;14.60;7.50;;;;;;;20.91;22.47;98286.55;116435;1182;71454;-79
2021/10/10 09:08:44;;;;;;;15.80;6.30;;;;;;;21.60;22.13;98280.79;116447;1182;68461;-73
2021/10/10 09:11:13;;;;;;;17.90;6.50;;;;;;;22.53;21.11;98274.84;116496;1182;69352;-75
2021/10/10 09:13:44;;;;;;;16.00;6.80;;;;;;;23.01;20.11;98275.59;116392;1182;59555;-77
2021/10/10 09:16:14;;;;;;;15.40;6.80;;;;;;;23.29;19.32;98266.34;116159;1177;59619;-69
2021/10/10 09:18:43;;;;;;;;;;;;;;;22.72;20.13;98265.68;116345;1184;71279;-66
2021/10/10 09:21:23;;;;;;;9.40;4.80;;;;;;;22.85;19.60;98260.36;116463;1183;67027;-74
2021/10/10 09:23:54;;;;;;;10.30;4.50;;;;;;;22.85;19.23;98263.20;116451;1182;69120;-75
2021/10/10 09:26:24;;;;;;;11.20;4.70;;;;;;;22.74;19.12;98264.92;116449;1182;59561;-70
2021/10/10 09:28:53;;;;;;;11.20;4.80;;;;;;;22.82;19.47;98259.02;116443;1182;59664;-67
2021/10/10 09:31:27;;;;;;;12.00;4.50;;;;;;;23.12;18.11;98258.30;116454;1181;71735;-71
2021/10/10 09:33:58;;;;;;;12.80;4.40;;;;;;;22.66;18.67;98259.47;116471;1182;67658;-75
2021/10/10 09:36:29;;;;;;;11.70;4.60;;;;;;;22.25;19.15;98255.81;116510;1181;68270;-70
2021/10/10 09:39:09;;;;;;;12.10;5.00;;;;;;;21.43;19.99;98255.20;116528;1183;59554;-81
2021/10/10 09:41:46;;;;;;;;;;;;;;;21.06;20.45;98257.48;116488;1180;59510;-74
2021/10/10 09:44:22;;;;;;;14.90;4.60;;;;;;;20.89;20.73;98260.63;116472;1182;71987;-83
2021/10/10 09:46:51;;;;;;;10.10;4.70;;;;;;;20.98;20.85;98255.02;116468;1184;67463;-73
2021/10/10 09:49:23;;;;;;;9.50;4.90;;;;;;;21.03;21.87;98250.88;116394;1182;69335;-78
2021/10/10 09:51:55;;;;;;;14.40;4.70;;;;;;;21.32;21.34;98247.90;116504;1184;59555;-81
2021/10/10 09:54:24;;;;;;;11.00;4.40;;;;;;;21.23;20.81;98247.31;116468;1182;59609;-71
2021/10/10 09:57:04;;;;;;;9.50;4.40;;;;;;;21.19;20.98;98243.77;116254;1183;69493;-78
2021/10/10 09:59:34;;;;;;;9.50;4.50;;;;;;;21.07;20.95;98246.27;116280;1184;68431;-75
2021/10/10 10:02:03;;;;;;;8.60;4.50;;;;;;;21.48;21.13;98247.36;116389;1182;69359;-72
2021/10/10 10:04:46;;;;;;;8.20;4.30;;;;;;;22.28;19.74;98245.88;116401;1184;60450;-75
2021/10/10 10:07:20;;;;;;;10.40;4.50;;;;;;;22.73;19.65;98246.02;116392;1182;59538;-76
2021/10/10 10:09:50;;;;;;;11.10;4.10;;;;;;;22.60;19.51;98245.46;116302;1183;71408;-72
2021/10/10 10:12:22;;;;;;;9.50;3.90;;;;;;;21.98;21.08;98244.06;116452;1182;67711;-68
2021/10/10 10:14:56;;;;;;;11.20;4.50;;;;;;;22.05;20.91;98245.46;116418;1183;69297;-75
2021/10/10 10:17:32;;;;;;;7.40;4.00;;;;;;;22.52;19.65;98247.81;116397;1181;59513;-77
2021/10/10 10:20:04;;;;;;;9.50;4.10;;;;;;;22.28;20.40;98241.45;116310;1184;59615;-83
2021/10/10 10:22:36;;;;;;;9.10;4.20;;;;;;;23.33;20.23;98238.91;116357;1184;71495;-73
2021/10/10 10:25:07;;;;;;;8.90;4.30;;;;;;;24.30;18.86;98234.88;116361;1182;67768;-73
2021/10/10 10:27:36;;;;;;;7.80;4.10;;;;;;;25.03;17.93;98234.56;116410;1182;69276;-74
2021/10/10 10:30:06;;;;;;;7.20;4.40;;;;;;;25.30;17.38;98227.83;116203;1184;59493;-68
2021/10/10 10:32:36;;;;;;;8.60;4.30;;;;;;;25.06;17.81;98229.99;116446;1182;59557;-72
2021/10/10 10:35:11;;;;;;;6.10;3.20;;;;;;;24.63;18.64;98225.23;116284;1182;71975;-72
2021/10/10 10:37:42;;;;;;;7.10;4.20;;;;;;;25.35;17.49;98224.84;116412;1182;68381;-68
2021/10/10 10:40:14;;;;;;;8.00;3.30;;;;;;;25.99;17.30;98219.27;116293;1184;68466;-68
2021/10/10 10:42:45;;;;;;;8.30;3.50;;;;;;;26.64;16.36;98216.16;116347;1173;59561;-81
2021/10/10 10:45:29;;;;;;;7.70;4.20;;;;;;;26.58;16.06;98216.44;116382;1184;59551;-75
2021/10/10 10:48:04;;;;;;;9.10;4.50;;;;;;;25.59;16.50;98214.00;116440;1182;70013;-69
2021/10/10 10:50:42;;;;;;;10.20;3.50;;;;;;;26.30;16.69;98210.73;116149;1184;67686;-71
2021/10/10 10:53:20;;;;;;;7.30;3.00;;;;;;;26.58;16.08;98213.45;116388;1183;69213;-75
2021/10/10 10:55:56;;;;;;;7.70;4.40;;;;;;;26.37;15.89;98209.13;116284;1174;59564;-80
2021/10/10 10:58:25;;;;;;;11.30;4.20;;;;;;;25.04;17.19;98206.17;116442;1182;59516;-78
2021/10/10 11:01:11;;;;;;;7.20;3.00;;;;;;;25.31;17.17;98204.73;116475;1181;72105;-76
2021/10/10 11:03:41;;;;;;;8.40;3.20;;;;;;;25.21;17.27;98202.61;116484;1182;68401;-74
2021/10/10 11:06:11;;;;;;;11.00;3.70;;;;;;;25.28;17.04;98204.80;116446;1182;69220;-72
2021/10/10 11:08:42;;;;;;;8.50;3.30;;;;;;;25.29;17.18;98199.58;116498;1182;59552;-76
2021/10/10 11:11:23;;;;;;;6.00;3.00;;;;;;;25.26;17.16;98201.05;116472;1183;59487;-70
2021/10/10 11:13:59;;;;;;;7.40;3.70;;;;;;;24.50;18.22;98189.07;116528;1183;71037;-70
2021/10/10 11:16:34;;;;;;;8.70;3.60;;;;;;;24.94;17.89;98193.78;116483;1182;67886;-72
2021/10/10 11:19:13;;;;;;;10.80;3.50;;;;;;;25.11;17.92;98191.11;116437;1183;69023;-81
2021/10/10 11:21:44;;;;;;;5.20;2.60;;;;;;;25.67;16.91;98182.49;116470;1183;59542;-68
2021/10/10 11:24:21;;;;;;;5.20;2.40;;;;;;;24.68;17.36;98188.38;116588;1182;59467;-73
2021/10/10 11:26:52;;;;;;;6.70;2.70;;;;;;;24.63;17.13;98178.61;116467;1182;71396;-66
2021/10/10 11:29:27;;;;;;;7.30;2.50;;;;;;;24.32;17.49;98176.28;116512;1182;68303;-75
2021/10/10 11:32:00;;;;;;;6.10;3.00;;;;;;;23.88;18.29;98181.70;116495;1182;69261;-74
2021/10/10 11:34:29;;;;;;;4.80;2.20;;;;;;;23.61;18.17;98179.71;116426;1184;59508;-68
2021/10/10 11:36:59;;;;;;;6.70;2.90;;;;;;;22.74;19.03;98174.58;116521;1182;59495;-70